Aviation Digital Data Service (ADDS)

Output produced by METARs form (1951 UTC 29 August 2016)
found at http://aviationweather.gov/adds/metars/
 
KCLT 291733Z 2918/3018 04008KT P6SM SCT035 BKN150 
     FM292300 05005KT P6SM FEW050 SCT150 
     FM300100 06003KT P6SM SCT200 
     FM301500 04007KT P6SM FEW050 SCT200